Time;durP1;ratioP1;P1;durP2;ratioP2;P2;SDS_P1;SDS_P2;PMS_P1;PMS_P2;Temp;Humidity;BMP_temperature;BMP_pressure;BME280_temperature;BME280_humidity;BME280_pressure;Samples;Min_cycle;Max_cycle;Signal;HPM_P1;HPM_P2
2024/04/09 00:01:35;;;;;;;4.38;2.05;;;;;;;18.15;51.24;100167.53;5567007;25;19997;-55
2024/04/09 00:04:04;;;;;;;4.35;2.05;;;;;;;18.17;50.98;100168.22;5567439;25;20001;-55
2024/04/09 00:06:34;;;;;;;6.18;1.90;;;;;;;18.17;50.70;100170.94;5565954;25;20008;-56
2024/04/09 00:09:05;;;;;;;5.70;2.17;;;;;;;18.10;50.91;100175.19;5563382;25;19997;-58
2024/04/09 00:11:36;;;;;;;5.53;2.40;;;;;;;18.12;50.86;100175.88;5563421;25;20000;-55
2024/04/09 00:14:04;;;;;;;4.90;2.33;;;;;;;18.13;50.78;100169.50;5563387;25;20006;-56
2024/04/09 00:16:39;;;;;;;4.20;2.10;;;;;;;18.11;50.92;100166.09;5563199;25;20445;-57
2024/04/09 00:19:13;;;;;;;6.50;2.10;;;;;;;18.06;51.07;100168.38;5562768;25;20009;-55
2024/04/09 00:21:44;;;;;;;4.43;2.10;;;;;;;18.00;50.99;100163.53;5562881;25;20446;-57
2024/04/09 00:24:12;;;;;;;5.55;2.25;;;;;;;18.03;50.49;100168.66;5562596;25;20009;-54
2024/04/09 00:26:42;;;;;;;3.92;1.95;;;;;;;17.97;51.27;100161.13;5562825;25;20008;-55
2024/04/09 00:29:10;;;;;;;3.55;2.00;;;;;;;17.99;51.28;100159.16;5562242;25;19996;-55
2024/04/09 00:31:43;;;;;;;4.85;2.30;;;;;;;17.98;51.22;100165.53;5562358;25;20063;-57
2024/04/09 00:34:10;;;;;;;5.65;2.13;;;;;;;17.95;51.15;100169.38;5562579;25;20012;-57
2024/04/09 00:36:40;;;;;;;3.40;2.03;;;;;;;17.84;51.40;100158.69;5562625;25;20009;-56
2024/04/09 00:39:22;;;;;;;5.30;2.40;;;;;;;17.83;51.49;100165.09;5562485;25;20009;-58
2024/04/09 00:41:52;;;;;;;4.28;2.10;;;;;;;17.91;52.02;100159.84;5562263;25;20454;-55
2024/04/09 00:44:21;;;;;;;4.55;2.10;;;;;;;17.89;52.05;100152.88;5562107;25;19993;-56
2024/04/09 00:46:54;;;;;;;6.70;2.00;;;;;;;17.91;51.50;100153.59;5562274;25;20005;-57
2024/04/09 00:49:21;;;;;;;4.75;2.30;;;;;;;17.82;51.59;100159.84;5562150;25;20130;-54
2024/04/09 00:51:55;;;;;;;4.72;2.35;;;;;;;17.76;51.79;100160.38;5562534;25;20007;-54
2024/04/09 00:54:22;;;;;;;;;;;;;;;17.73;51.81;100162.38;5562884;25;20008;-55
2024/04/09 00:56:53;;;;;;;5.32;2.05;;;;;;;17.70;52.25;100162.66;5562058;25;19923;-57
2024/04/09 00:59:22;;;;;;;5.85;2.20;;;;;;;17.66;51.85;100161.22;5562084;25;19996;-57
2024/04/09 01:01:54;;;;;;;4.53;2.10;;;;;;;17.75;52.37;100162.25;5561950;25;19997;-58
2024/04/09 01:04:22;;;;;;;5.82;2.25;;;;;;;17.80;51.74;100153.75;5562108;25;19997;-54
2024/04/09 01:06:52;;;;;;;7.43;2.40;;;;;;;17.68;52.56;100167.31;5562178;25;20008;-56
2024/04/09 01:09:20;;;;;;;7.47;2.10;;;;;;;17.67;52.37;100162.94;5561923;25;20004;-55
2024/04/09 01:11:50;;;;;;;6.20;2.30;;;;;;;17.65;52.91;100167.59;5561937;25;20007;-55
2024/04/09 01:14:17;;;;;;;4.28;1.80;;;;;;;17.60;52.69;100164.47;5561940;25;20037;-58
2024/04/09 01:16:47;;;;;;;4.88;2.05;;;;;;;17.65;53.17;100164.88;5562010;25;20193;-58
2024/04/09 01:19:18;;;;;;;5.70;2.20;;;;;;;17.58;52.44;100158.38;5561878;25;19997;-55
2024/04/09 01:21:48;;;;;;;5.20;2.15;;;;;;;17.50;53.12;100166.28;5561653;25;20004;-57
2024/04/09 01:24:18;;;;;;;5.03;2.40;;;;;;;17.46;52.88;100159.47;5561905;25;19999;-56
2024/04/09 01:26:49;;;;;;;5.45;2.10;;;;;;;17.53;53.46;100166.00;5561814;25;20125;-58
2024/04/09 01:29:16;;;;;;;3.70;1.77;;;;;;;17.42;53.84;100153.50;5561453;25;20008;-55
2024/04/09 01:31:46;;;;;;;5.18;2.30;;;;;;;17.44;53.01;100154.22;5561385;25;20008;-55
2024/04/09 01:34:15;;;;;;;7.13;2.55;;;;;;;17.43;53.56;100154.34;5561653;25;19997;-54
2024/04/09 01:36:45;;;;;;;4.47;2.45;;;;;;;17.43;53.51;100157.03;5561462;25;20007;-56
2024/04/09 01:39:14;;;;;;;5.60;2.55;;;;;;;17.48;53.55;100157.50;5561227;25;20345;-57
2024/04/09 01:41:49;;;;;;;6.18;2.63;;;;;;;17.50;53.86;100155.50;5561677;25;20004;-56
2024/04/09 01:44:16;;;;;;;4.60;2.10;;;;;;;17.51;54.63;100154.50;5561683;25;20361;-56
2024/04/09 01:46:48;;;;;;;7.95;2.33;;;;;;;17.44;54.68;100156.06;5561738;25;19997;-59
2024/04/09 01:49:16;;;;;;;3.70;2.10;;;;;;;17.41;54.34;100154.50;5561485;25;19997;-54
2024/04/09 01:51:46;;;;;;;5.20;2.00;;;;;;;17.31;53.93;100156.31;5561722;25;20094;-56
2024/04/09 01:54:13;;;;;;;6.28;2.38;;;;;;;17.36;54.42;100161.28;5561620;25;19996;-53
2024/04/09 01:56:43;;;;;;;5.80;2.40;;;;;;;17.29;54.54;100162.84;5561409;25;19996;-55
2024/04/09 01:59:14;;;;;;;6.07;2.40;;;;;;;17.27;55.10;100160.25;5561198;25;20042;-53
2024/04/09 02:01:44;;;;;;;5.32;2.35;;;;;;;17.27;55.35;100146.78;5560911;25;20016;-57
2024/04/09 02:04:12;;;;;;;8.40;2.17;;;;;;;17.13;55.85;100148.03;5561405;25;20009;-55
2024/04/09 02:06:44;;;;;;;4.78;2.20;;;;;;;17.14;56.44;100143.50;5560934;25;19996;-55
2024/04/09 02:09:12;;;;;;;5.90;2.38;;;;;;;17.17;56.03;100151.28;5561035;25;20011;-57
2024/04/09 02:11:42;;;;;;;3.97;2.20;;;;;;;17.14;55.52;100152.44;5560931;25;19996;-57
2024/04/09 02:14:10;;;;;;;4.65;2.50;;;;;;;17.14;55.78;100155.13;5560777;25;20512;-58
2024/04/09 02:16:42;;;;;;;4.85;2.33;;;;;;;17.06;55.30;100149.56;5560716;25;20349;-55
2024/04/09 02:19:13;;;;;;;4.95;2.30;;;;;;;17.07;56.58;100145.88;5560821;25;20001;-55
2024/04/09 02:21:43;;;;;;;5.13;2.40;;;;;;;17.03;55.86;100141.75;5559906;25;20011;-54
2024/04/09 02:24:10;;;;;;;4.95;2.33;;;;;;;17.04;56.54;100148.00;5560972;25;20008;-56
2024/04/09 02:26:40;;;;;;;7.05;2.60;;;;;;;16.98;56.08;100151.22;5560750;25;19996;-58
2024/04/09 02:29:08;;;;;;;5.53;2.53;;;;;;;16.91;56.02;100152.78;5560605;25;19996;-57
2024/04/09 02:31:40;;;;;;;6.95;2.70;;;;;;;16.83;57.81;100150.75;5560655;25;20005;-56
2024/04/09 02:34:10;;;;;;;8.27;2.85;;;;;;;16.81;58.14;100144.66;5560655;25;20126;-55
2024/04/09 02:36:40;;;;;;;5.03;2.85;;;;;;;16.72;57.81;100148.16;5560756;25;19997;-55
2024/04/09 02:39:08;;;;;;;5.68;3.17;;;;;;;16.62;57.70;100153.44;5560448;25;20086;-54
2024/04/09 02:41:39;;;;;;;6.50;3.55;;;;;;;16.59;59.33;100149.16;5560377;25;20364;-55
2024/04/09 02:44:07;;;;;;;6.18;3.00;;;;;;;16.63;59.36;100143.53;5528747;25;19997;-57
2024/04/09 02:46:37;;;;;;;6.05;3.13;;;;;;;16.48;59.65;100135.78;5560405;25;20008;-55
2024/04/09 02:49:06;;;;;;;8.38;4.40;;;;;;;16.51;58.62;100140.91;5560167;25;20008;-55
2024/04/09 02:51:40;;;;;;;9.50;3.97;;;;;;;16.52;58.83;100137.22;5560159;25;19997;-53
2024/04/09 02:54:07;;;;;;;6.13;3.45;;;;;;;16.51;59.58;100137.38;5562122;25;20087;-54
2024/04/09 02:56:37;;;;;;;6.47;3.55;;;;;;;16.47;59.31;100128.69;5566143;25;20066;-55
2024/04/09 02:59:05;;;;;;;6.78;3.53;;;;;;;16.42;59.47;100135.47;5565009;25;19993;-57
2024/04/09 03:01:35;;;;;;;6.97;3.30;;;;;;;16.32;59.46;100143.50;5562270;25;19997;-55
2024/04/09 03:04:03;;;;;;;6.25;3.13;;;;;;;16.33;59.59;100147.88;5563197;25;19992;-58
2024/04/09 03:06:33;;;;;;;7.50;2.85;;;;;;;16.44;59.67;100144.25;5560200;25;20911;-57
2024/04/09 03:09:04;;;;;;;5.05;2.90;;;;;;;16.48;59.67;100138.47;5560087;25;20035;-55
2024/04/09 03:11:34;;;;;;;7.43;3.42;;;;;;;16.43;59.38;100139.88;5560035;25;20025;-55
2024/04/09 03:14:06;;;;;;;5.35;3.28;;;;;;;16.50;59.71;100144.59;5560062;25;20493;-57
2024/04/09 03:16:36;;;;;;;7.35;3.60;;;;;;;16.49;59.56;100142.00;5559719;25;20000;-55
2024/04/09 03:19:04;;;;;;;7.18;3.00;;;;;;;16.43;59.70;100153.31;5559948;25;19996;-55
2024/04/09 03:21:34;;;;;;;6.78;3.00;;;;;;;16.48;58.62;100148.38;5559938;25;20011;-57
2024/04/09 03:24:05;;;;;;;7.05;3.30;;;;;;;16.44;59.95;100145.13;5559891;25;20065;-56
2024/04/09 03:26:35;;;;;;;7.88;3.70;;;;;;;16.34;59.41;100141.50;5559738;25;19996;-55
2024/04/09 03:29:02;;;;;;;8.55;3.50;;;;;;;16.30;60.51;100145.44;5559715;25;20003;-58
2024/04/09 03:31:32;;;;;;;9.43;3.20;;;;;;;16.30;61.03;100148.13;5559504;25;19997;-56
2024/04/09 03:34:00;;;;;;;9.55;3.92;;;;;;;16.28;61.71;100144.72;5562553;25;19997;-57
2024/04/09 03:36:30;;;;;;;7.00;3.65;;;;;;;16.25;62.00;100145.84;5563539;25;20000;-56
2024/04/09 03:39:00;;;;;;;9.60;3.40;;;;;;;16.27;61.34;100148.41;5563523;25;19997;-57
2024/04/09 03:41:34;;;;;;;14.65;4.13;;;;;;;16.39;61.10;100144.66;5563182;25;20004;-57
2024/04/09 03:44:04;;;;;;;10.43;4.60;;;;;;;16.43;60.25;100146.09;5563459;25;19999;-55
2024/04/09 03:46:31;;;;;;;9.32;4.75;;;;;;;16.35;60.66;100140.53;5563353;25;20340;-56
2024/04/09 03:49:03;;;;;;;7.80;3.45;;;;;;;16.29;60.86;100143.72;5563313;25;19997;-55
2024/04/09 03:51:31;;;;;;;9.05;4.03;;;;;;;16.18;61.94;100141.09;5563217;25;19997;-55
2024/04/09 03:54:01;;;;;;;11.55;4.45;;;;;;;16.16;60.83;100145.78;5563285;25;20317;-55
2024/04/09 03:56:31;;;;;;;9.10;3.90;;;;;;;16.27;60.82;100143.00;5562952;25;20025;-55
2024/04/09 03:59:01;;;;;;;11.38;4.20;;;;;;;16.17;61.26;100140.25;5563280;25;20020;-57
2024/04/09 04:01:28;;;;;;;10.15;4.50;;;;;;;16.13;61.91;100140.66;5562934;25;20005;-57
2024/04/09 04:03:59;;;;;;;9.73;4.10;;;;;;;16.08;61.20;100132.09;5563018;25;20065;-56
2024/04/09 04:06:27;;;;;;;7.00;3.60;;;;;;;16.12;61.42;100130.88;5562785;25;19996;-56
2024/04/09 04:08:56;;;;;;;7.50;3.90;;;;;;;16.10;60.76;100132.81;5562778;25;20126;-55
2024/04/09 04:11:24;;;;;;;7.55;3.65;;;;;;;16.05;61.50;100138.63;5562867;25;20009;-57
2024/04/09 04:13:57;;;;;;;6.72;3.40;;;;;;;16.08;60.43;100132.09;5562424;25;20003;-57
2024/04/09 04:16:25;;;;;;;6.43;3.75;;;;;;;16.13;60.50;100130.75;5562539;25;20021;-58
2024/04/09 04:18:55;;;;;;;9.70;4.28;;;;;;;16.14;59.75;100137.84;5562416;25;20064;-57
2024/04/09 04:21:23;;;;;;;8.80;3.33;;;;;;;16.23;59.77;100125.44;5562187;25;20005;-56
2024/04/09 04:23:54;;;;;;;8.23;3.50;;;;;;;16.30;59.92;100129.28;5562020;25;20001;-56
2024/04/09 04:26:23;;;;;;;7.72;3.45;;;;;;;16.27;59.98;100129.56;5561888;25;19997;-57
2024/04/09 04:28:59;;;;;;;8.20;3.78;;;;;;;16.09;60.19;100129.28;5561953;25;20458;-56
2024/04/09 04:31:26;;;;;;;7.93;3.60;;;;;;;16.33;59.08;100131.72;5561909;25;20007;-57
2024/04/09 04:33:56;;;;;;;7.95;3.75;;;;;;;16.33;59.13;100128.19;5561987;25;20025;-57
2024/04/09 04:36:25;;;;;;;7.18;3.60;;;;;;;16.34;59.74;100127.19;5561986;25;19997;-55
2024/04/09 04:38:55;;;;;;;9.93;3.78;;;;;;;16.32;59.53;100140.78;5562008;25;19997;-55
2024/04/09 04:41:22;;;;;;;11.23;3.60;;;;;;;16.33;59.91;100137.13;5561802;25;20004;-57
2024/04/09 04:43:55;;;;;;;15.75;4.28;;;;;;;16.29;60.77;100130.28;5561260;25;19996;-57
2024/04/09 04:46:27;;;;;;;10.13;3.72;;;;;;;16.35;60.08;100126.22;5561641;25;20004;-56
2024/04/09 04:48:57;;;;;;;10.68;4.43;;;;;;;16.23;62.16;100125.44;5561830;25;20060;-56
2024/04/09 04:51:25;;;;;;;10.73;4.30;;;;;;;16.18;61.29;100123.13;5561862;25;19997;-54
2024/04/09 04:53:55;;;;;;;8.48;4.07;;;;;;;16.22;60.65;100127.28;5561905;25;20091;-57
2024/04/09 04:56:23;;;;;;;9.90;4.38;;;;;;;16.26;59.94;100122.47;5561847;25;20008;-56
2024/04/09 04:58:53;;;;;;;7.55;3.85;;;;;;;16.39;60.33;100131.19;5562304;25;20025;-54
2024/04/09 05:01:21;;;;;;;10.13;4.65;;;;;;;16.45;60.81;100127.97;5561612;25;20330;-56
2024/04/09 05:03:57;;;;;;;12.35;4.63;;;;;;;16.30;61.74;100129.28;5562069;25;20020;-56
2024/04/09 05:06:26;;;;;;;9.35;4.13;;;;;;;16.07;61.88;100125.03;5561469;25;20031;-57
2024/04/09 05:08:56;;;;;;;9.18;3.90;;;;;;;16.23;62.06;100130.81;5561503;25;20370;-57
2024/04/09 05:11:23;;;;;;;10.15;4.20;;;;;;;16.37;61.29;100132.31;5561782;25;20007;-55
2024/04/09 05:13:54;;;;;;;9.70;3.78;;;;;;;16.40;61.18;100116.75;5561777;25;20004;-56
2024/04/09 05:16:22;;;;;;;10.98;4.60;;;;;;;16.44;61.44;100123.56;5561533;25;20088;-54
2024/04/09 05:18:52;;;;;;;10.23;3.95;;;;;;;16.64;60.81;100121.00;5561260;25;19997;-54
2024/04/09 05:21:22;;;;;;;10.52;4.03;;;;;;;16.65;61.62;100126.25;5561319;25;20012;-57
2024/04/09 05:23:52;;;;;;;8.18;4.00;;;;;;;16.71;61.43;100138.38;5560798;25;20405;-57
2024/04/09 05:26:20;;;;;;;11.23;3.60;;;;;;;16.73;60.26;100134.53;5561027;25;19997;-53
2024/04/09 05:28:50;;;;;;;9.27;4.30;;;;;;;16.76;60.45;100136.09;5561228;25;19997;-56
2024/04/09 05:31:17;;;;;;;24.60;11.50;;;;;;;16.81;60.73;100125.78;5561403;25;19993;-56
2024/04/09 05:33:47;;;;;;;9.98;4.38;;;;;;;16.83;60.29;100126.50;5561189;25;19996;-52
2024/04/09 05:36:14;;;;;;;10.70;4.10;;;;;;;16.86;59.43;100128.91;5560087;25;20009;-58
2024/04/09 05:38:47;;;;;;;9.13;3.63;;;;;;;16.87;59.63;100126.06;5560431;25;20001;-55
2024/04/09 05:41:15;;;;;;;9.23;3.78;;;;;;;16.93;59.89;100127.38;5560727;25;20037;-57
2024/04/09 05:43:45;;;;;;;9.05;3.75;;;;;;;16.93;59.60;100132.78;5560331;25;19996;-58
2024/04/09 05:46:12;;;;;;;7.70;3.88;;;;;;;17.02;59.79;100134.66;5560907;25;20008;-57
2024/04/09 05:48:42;;;;;;;9.32;3.80;;;;;;;17.01;58.99;100138.34;5560841;25;19997;-57
2024/04/09 05:51:10;;;;;;;10.40;4.15;;;;;;;17.05;59.57;100144.31;5555552;25;20048;-58
2024/04/09 05:53:40;;;;;;;9.45;3.70;;;;;;;17.13;59.53;100147.19;5545701;25;20033;-56
2024/04/09 05:56:10;;;;;;;10.85;5.22;;;;;;;17.26;59.53;100138.84;5526191;26;20009;-58
2024/04/09 05:58:43;;;;;;;10.73;3.60;;;;;;;17.28;59.41;100136.88;5551174;25;20045;-57
2024/04/09 06:01:10;;;;;;;7.60;2.90;;;;;;;17.24;59.24;100138.13;5562540;25;20024;-55
2024/04/09 06:03:40;;;;;;;8.57;4.32;;;;;;;17.45;59.09;100137.03;5559247;25;20012;-55
2024/04/09 06:06:08;;;;;;;8.00;3.55;;;;;;;17.42;58.68;100145.41;5560086;25;20034;-56
2024/04/09 06:08:38;;;;;;;6.13;3.05;;;;;;;17.59;57.74;100143.88;5560330;25;20036;-53
2024/04/09 06:11:07;;;;;;;9.07;3.70;;;;;;;17.63;58.20;100153.38;5559848;25;19996;-54
2024/04/09 06:13:40;;;;;;;11.20;3.08;;;;;;;17.79;57.46;100154.72;5560714;25;19996;-55
2024/04/09 06:16:07;;;;;;;8.13;3.05;;;;;;;17.53;58.63;100148.97;5560907;25;19997;-58
2024/04/09 06:18:37;;;;;;;8.93;3.00;;;;;;;17.55;57.58;100147.00;5559902;25;20012;-58
2024/04/09 06:21:05;;;;;;;6.68;2.95;;;;;;;17.70;57.15;100151.03;5559825;25;20003;-56
2024/04/09 06:23:35;;;;;;;5.55;2.70;;;;;;;17.54;57.39;100156.06;5559816;25;20037;-54
2024/04/09 06:26:04;;;;;;;5.45;2.88;;;;;;;17.81;57.13;100152.75;5560515;25;20529;-57
2024/04/09 06:28:33;;;;;;;6.15;2.85;;;;;;;17.66;56.54;100155.84;5560589;25;20333;-56
2024/04/09 06:31:03;;;;;;;6.40;2.50;;;;;;;17.39;57.84;100158.34;5559957;25;20115;-55
2024/04/09 06:33:34;;;;;;;4.18;2.38;;;;;;;17.72;56.36;100160.69;5560073;25;19996;-56
2024/04/09 06:36:01;;;;;;;6.63;2.85;;;;;;;17.83;56.28;100161.53;5560015;25;20000;-55
2024/04/09 06:38:45;;;;;;;8.05;2.85;;;;;;;18.07;55.95;100159.28;5560184;25;20417;-58
2024/04/09 06:41:13;;;;;;;7.18;2.65;;;;;;;17.97;55.08;100153.03;5559664;25;20011;-56
2024/04/09 06:43:43;;;;;;;6.47;2.63;;;;;;;18.15;54.81;100155.88;5559963;25;20016;-57
2024/04/09 06:46:13;;;;;;;8.05;2.95;;;;;;;18.42;54.53;100144.31;5560045;25;20122;-54
2024/04/09 06:48:43;;;;;;;8.00;2.60;;;;;;;18.47;54.23;100144.75;5559879;25;20008;-55
2024/04/09 06:51:11;;;;;;;7.07;2.92;;;;;;;18.17;56.44;100143.94;5558765;25;20004;-55
2024/04/09 06:53:41;;;;;;;6.60;2.72;;;;;;;18.29;55.35;100137.38;5559762;25;19997;-53
2024/04/09 06:56:09;;;;;;;6.45;3.08;;;;;;;18.59;53.90;100144.41;5560329;25;20446;-56
2024/04/09 06:58:40;;;;;;;8.25;3.30;;;;;;;18.72;52.92;100138.75;5559655;25;20075;-55
2024/04/09 07:01:08;;;;;;;5.18;2.65;;;;;;;18.56;53.34;100139.31;5558839;25;19992;-54
2024/04/09 07:03:40;;;;;;;6.80;2.70;;;;;;;18.68;53.16;100136.47;5559010;25;20000;-55
2024/04/09 07:06:08;;;;;;;6.43;2.70;;;;;;;18.91;53.15;100142.34;5558749;25;20001;-53
2024/04/09 07:08:38;;;;;;;7.70;2.50;;;;;;;18.74;52.91;100131.34;5562680;25;20068;-52
2024/04/09 07:11:06;;;;;;;6.47;2.90;;;;;;;18.67;53.68;100134.78;5562413;25;20007;-54
2024/04/09 07:13:36;;;;;;;6.35;2.65;;;;;;;18.65;53.47;100137.63;5562880;25;20009;-53
2024/04/09 07:16:08;;;;;;;9.77;2.67;;;;;;;19.04;52.14;100132.91;5562843;25;20328;-54
2024/04/09 07:18:40;;;;;;;9.43;3.33;;;;;;;19.23;52.35;100131.13;5561702;25;20015;-56
2024/04/09 07:21:08;;;;;;;4.70;2.72;;;;;;;19.07;52.76;100126.34;5561810;25;20044;-57
2024/04/09 07:23:38;;;;;;;6.60;2.70;;;;;;;19.10;51.82;100123.34;5561225;25;20016;-55
2024/04/09 07:26:06;;;;;;;6.47;2.65;;;;;;;19.30;51.29;100127.69;5561941;25;20001;-55
2024/04/09 07:28:36;;;;;;;7.32;2.70;;;;;;;19.63;51.10;100114.53;5561646;25;20012;-57
2024/04/09 07:31:04;;;;;;;5.70;2.28;;;;;;;19.67;50.43;100122.16;5562003;25;20064;-54
2024/04/09 07:33:34;;;;;;;5.78;2.35;;;;;;;19.70;51.32;100116.47;5561758;25;20116;-55
2024/04/09 07:36:04;;;;;;;7.22;2.55;;;;;;;19.80;49.59;100116.41;5562384;25;20071;-55
2024/04/09 07:38:35;;;;;;;5.45;2.63;;;;;;;19.68;50.66;100121.16;5562248;25;20301;-55
2024/04/09 07:41:03;;;;;;;5.25;2.40;;;;;;;19.75;50.73;100116.00;5562129;25;20071;-56
2024/04/09 07:43:33;;;;;;;4.00;2.20;;;;;;;19.70;50.67;100121.88;5561883;25;20001;-56
2024/04/09 07:46:04;;;;;;;5.60;2.50;;;;;;;19.63;50.87;100119.94;5562036;25;20016;-56
2024/04/09 07:48:35;;;;;;;5.60;2.20;;;;;;;19.45;52.41;100120.72;5561677;25;20023;-55
2024/04/09 07:51:05;;;;;;;8.05;2.20;;;;;;;19.49;51.53;100115.84;5562178;25;20436;-56
2024/04/09 07:53:35;;;;;;;5.22;2.22;;;;;;;19.75;51.32;100115.16;5562269;25;20038;-57
2024/04/09 07:56:04;;;;;;;4.57;2.22;;;;;;;19.95;50.85;100109.41;5561116;25;20331;-56
2024/04/09 07:58:34;;;;;;;5.63;2.17;;;;;;;20.19;49.83;100114.19;5556923;25;20019;-56
2024/04/09 08:01:02;;;;;;;6.65;2.50;;;;;;;20.40;49.38;100116.53;5561661;25;20000;-56
2024/04/09 08:03:32;;;;;;;6.80;2.33;;;;;;;20.25;50.09;100108.13;5561028;25;20398;-56
2024/04/09 08:06:00;;;;;;;5.22;2.03;;;;;;;20.44;50.55;100103.56;5561927;25;20007;-57
2024/04/09 08:08:33;;;;;;;8.52;2.60;;;;;;;20.68;49.01;100103.72;5561853;25;20021;-55
2024/04/09 08:11:07;;;;;;;6.40;2.50;;;;;;;20.62;48.64;100103.50;5561622;25;20011;-56
2024/04/09 08:13:37;;;;;;;6.05;2.45;;;;;;;20.96;48.93;100098.09;5561507;25;20005;-57
2024/04/09 08:16:05;;;;;;;4.57;2.47;;;;;;;21.12;47.55;100093.56;5562294;25;19997;-55
2024/04/09 08:18:35;;;;;;;7.90;2.75;;;;;;;21.29;47.21;100097.22;5560450;25;19997;-53
2024/04/09 08:21:03;;;;;;;10.70;2.30;;;;;;;21.33;46.75;100097.75;5561285;25;20646;-57
2024/04/09 08:23:36;;;;;;;6.18;2.20;;;;;;;21.01;47.41;100093.03;5561437;25;20020;-56
2024/04/09 08:26:03;;;;;;;8.00;2.25;;;;;;;21.30;47.58;100092.66;5561490;25;20008;-52
2024/04/09 08:28:33;;;;;;;7.53;2.50;;;;;;;21.51;47.75;100086.75;5561482;25;19997;-53
2024/04/09 08:31:05;;;;;;;4.35;1.83;;;;;;;21.71;46.44;100086.31;5561596;25;20001;-57
2024/04/09 08:33:37;;;;;;;5.65;2.10;;;;;;;21.93;45.80;100079.34;5561591;25;19996;-52
2024/04/09 08:36:05;;;;;;;7.88;2.28;;;;;;;22.23;45.83;100072.41;5561734;25;19996;-57
2024/04/09 08:38:38;;;;;;;6.40;2.08;;;;;;;22.32;44.89;100061.53;5561438;25;19992;-55
2024/04/09 08:41:07;;;;;;;4.30;2.00;;;;;;;22.35;44.88;100072.91;5561020;25;20064;-53
2024/04/09 08:43:38;;;;;;;4.93;1.80;;;;;;;22.49;43.87;100068.63;5560850;25;20108;-56
2024/04/09 08:46:07;;;;;;;7.30;2.33;;;;;;;22.54;43.59;100066.22;5561088;25;19993;-58
2024/04/09 08:48:40;;;;;;;4.70;1.90;;;;;;;22.57;43.63;100063.16;5561255;25;20020;-55
2024/04/09 08:51:10;;;;;;;6.63;2.08;;;;;;;22.73;42.05;100065.84;5560877;25;20009;-56
2024/04/09 08:53:46;;;;;;;5.60;2.17;;;;;;;22.94;42.16;100051.69;5560744;25;20008;-54
2024/04/09 08:56:14;;;;;;;6.07;2.00;;;;;;;23.14;41.73;100057.53;5561532;25;19997;-56
2024/04/09 08:58:44;;;;;;;5.25;1.92;;;;;;;23.10;41.28;100061.63;5561529;25;20068;-55
2024/04/09 09:01:26;;;;;;;5.55;2.05;;;;;;;23.06;42.08;100058.41;5560879;25;20441;-55
2024/04/09 09:03:57;;;;;;;4.80;1.90;;;;;;;23.21;42.13;100058.50;5560998;25;20449;-52
2024/04/09 09:06:25;;;;;;;4.65;2.00;;;;;;;23.41;41.49;100059.75;5561130;25;19997;-56
2024/04/09 09:08:58;;;;;;;4.30;1.90;;;;;;;23.50;40.34;100056.97;5562154;25;20008;-56
2024/04/09 09:11:26;;;;;;;9.65;2.70;;;;;;;23.47;41.28;100050.03;5565565;25;19997;-57
2024/04/09 09:14:07;;;;;;;5.72;1.80;;;;;;;23.56;40.20;100048.09;5566374;25;20068;-59
2024/04/09 09:16:34;;;;;;;10.50;1.80;;;;;;;23.68;40.73;100052.13;5566056;25;20450;-54
2024/04/09 09:19:06;;;;;;;4.90;1.73;;;;;;;23.72;39.96;100053.44;5564482;25;20101;-56
2024/04/09 09:21:34;;;;;;;3.22;1.55;;;;;;;23.67;39.51;100047.72;5561578;25;19997;-57
2024/04/09 09:24:08;;;;;;;5.70;1.50;;;;;;;23.50;39.89;100052.38;5561057;25;20012;-59
2024/04/09 09:26:35;;;;;;;6.43;1.95;;;;;;;23.73;39.98;100040.66;5561448;25;20003;-58
2024/04/09 09:29:07;;;;;;;5.93;2.20;;;;;;;23.81;38.96;100038.72;5561303;25;19996;-58
2024/04/09 09:31:39;;;;;;;6.35;1.90;;;;;;;23.89;38.77;100037.81;5561145;25;19997;-55
2024/04/09 09:34:11;;;;;;;8.23;2.20;;;;;;;23.81;39.43;100035.16;5560859;25;20021;-56
2024/04/09 09:36:40;;;;;;;11.23;2.17;;;;;;;23.74;39.33;100040.53;5561017;25;19996;-58
2024/04/09 09:39:15;;;;;;;7.22;1.90;;;;;;;23.86;39.12;100038.19;5559133;25;20406;-58
2024/04/09 09:41:43;;;;;;;4.32;1.80;;;;;;;23.81;38.52;100030.56;5560555;25;20351;-58
2024/04/09 09:44:16;;;;;;;4.32;1.95;;;;;;;24.14;38.65;100027.56;5560272;25;19997;-56
2024/04/09 09:46:45;;;;;;;4.63;1.60;;;;;;;24.10;39.03;100024.34;5560009;25;20494;-58
2024/04/09 09:49:19;;;;;;;5.30;2.10;;;;;;;24.32;37.84;100027.22;5560659;25;19997;-56
2024/04/09 09:51:47;;;;;;;6.28;1.98;;;;;;;24.44;38.00;100012.13;5560291;25;20000;-58
2024/04/09 09:54:21;;;;;;;5.80;1.98;;;;;;;24.43;38.82;100024.91;5560159;25;20004;-58
2024/04/09 09:56:53;;;;;;;4.63;1.90;;;;;;;24.41;38.11;100016.03;5560339;25;19996;-57
2024/04/09 09:59:26;;;;;;;5.13;2.20;;;;;;;24.50;38.71;100009.47;5560401;25;20390;-57
2024/04/09 10:01:55;;;;;;;5.13;1.80;;;;;;;24.59;38.86;100003.91;5560532;25;20286;-59
2024/04/09 10:04:28;;;;;;;4.53;1.67;;;;;;;24.53;37.68;100002.81;5560702;25;20003;-56
2024/04/09 10:06:56;;;;;;;5.15;1.77;;;;;;;24.59;37.50;100001.19;5560817;25;19996;-58
2024/04/09 10:09:49;;;;;;;4.68;1.83;;;;;;;24.38;37.76;100000.06;5559249;25;20035;-56
2024/04/09 10:12:20;;;;;;;4.80;1.70;;;;;;;24.52;37.86;100001.97;5560251;25;19993;-57
2024/04/09 10:15:01;;;;;;;3.05;1.88;;;;;;;24.65;37.34;99992.25;5560006;25;20001;-59
2024/04/09 10:17:43;;;;;;;5.15;1.80;;;;;;;24.70;37.94;99995.25;5560098;25;20130;-58
2024/04/09 10:20:20;;;;;;;8.05;1.90;;;;;;;24.80;37.33;99993.94;5559595;25;20076;-55
2024/04/09 10:22:48;;;;;;;8.93;1.80;;;;;;;24.85;37.04;99993.38;5560672;25;20418;-55
2024/04/09 10:25:22;;;;;;;4.28;1.75;;;;;;;24.95;36.59;99985.72;5559621;25;20000;-59
2024/04/09 10:28:00;;;;;;;4.95;1.90;;;;;;;25.00;36.56;99993.34;5559362;25;20536;-58
2024/04/09 10:30:31;;;;;;;7.40;2.33;;;;;;;25.09;37.84;99984.88;5560695;25;19993;-61
2024/04/09 10:33:03;;;;;;;6.25;2.10;;;;;;;25.01;38.37;99993.16;5560777;25;20007;-59
2024/04/09 10:35:34;;;;;;;6.63;1.75;;;;;;;25.07;38.83;99981.47;5560340;25;20024;-60
2024/04/09 10:38:05;;;;;;;5.47;2.00;;;;;;;25.25;37.05;99983.78;5559765;25;20008;-59
2024/04/09 10:40:37;;;;;;;7.82;2.03;;;;;;;25.28;37.89;99979.81;5560177;25;19993;-60
2024/04/09 10:43:07;;;;;;;6.63;2.20;;;;;;;25.17;35.63;99981.16;5558821;25;20009;-58
2024/04/09 10:45:38;;;;;;;3.83;2.08;;;;;;;25.10;36.24;99975.66;5558931;25;20072;-59
2024/04/09 10:48:22;;;;;;;5.57;1.80;;;;;;;25.20;40.55;99969.88;5559499;25;20025;-58
2024/04/09 10:50:53;;;;;;;4.47;1.90;;;;;;;25.26;37.45;99979.16;5559681;25;20008;-57
2024/04/09 10:53:21;;;;;;;4.55;1.92;;;;;;;25.36;37.13;99974.22;5559775;25;19992;-58
2024/04/09 10:56:01;;;;;;;5.15;2.08;;;;;;;25.30;35.38;99970.41;5559444;25;20001;-57
2024/04/09 10:58:30;;;;;;;5.22;2.10;;;;;;;25.53;35.74;99964.75;5559308;25;20437;-62
2024/04/09 11:01:00;;;;;;;5.38;2.15;;;;;;;25.53;35.42;99970.22;5559265;25;19996;-57
2024/04/09 11:03:28;;;;;;;4.05;2.25;;;;;;;25.76;36.33;99960.97;5559657;25;20053;-55
2024/04/09 11:05:59;;;;;;;8.05;2.20;;;;;;;25.71;34.54;99960.72;5559460;25;19997;-57
2024/04/09 11:08:28;;;;;;;7.65;2.17;;;;;;;25.79;34.99;99957.88;5559528;25;20024;-58
2024/04/09 11:11:03;;;;;;;6.28;2.08;;;;;;;25.69;34.37;99948.09;5559221;25;20481;-56
2024/04/09 11:13:31;;;;;;;7.55;2.03;;;;;;;25.92;34.54;99942.41;5559558;25;19997;-55
2024/04/09 11:16:02;;;;;;;8.20;2.28;;;;;;;25.86;34.51;99947.81;5559160;25;20016;-55
2024/04/09 11:18:30;;;;;;;4.93;1.95;;;;;;;25.92;34.00;99936.94;5559717;25;20007;-57
2024/04/09 11:21:03;;;;;;;7.57;2.30;;;;;;;25.91;33.95;99934.41;5559043;25;19996;-55
2024/04/09 11:23:34;;;;;;;5.00;1.90;;;;;;;25.95;33.50;99938.41;5559823;25;20096;-55
2024/04/09 11:26:05;;;;;;;8.52;2.17;;;;;;;26.08;35.13;99932.22;5558898;25;20000;-56
2024/04/09 11:28:37;;;;;;;6.78;2.05;;;;;;;25.90;34.70;99927.25;5559009;25;19997;-58
2024/04/09 11:31:06;;;;;;;4.80;2.10;;;;;;;25.99;33.62;99920.59;5559041;25;20003;-56
2024/04/09 11:33:37;;;;;;;5.15;1.90;;;;;;;26.00;32.89;99916.81;5559023;25;19997;-57
2024/04/09 11:36:09;;;;;;;5.85;1.75;;;;;;;26.05;33.07;99916.19;5559153;25;19996;-57
2024/04/09 11:38:52;;;;;;;6.82;2.17;;;;;;;26.13;34.26;99914.16;5558862;25;20063;-57
2024/04/09 11:41:22;;;;;;;7.20;1.90;;;;;;;25.90;34.05;99917.19;5558900;25;20009;-61